Santa Rosa, New Mexico
Current Conditions -  °F | °C
As of 12:53 PM on Thursday 27 Nov 2014 (Local Time) from KLVS Reporting Station
Clear Clear  
Wind Chill: 66°   Ceiling: Unl
Heat Index: 66°   Visibility: 10mi
Dew Point: 13°   Wind: 8mph
Humidity: 13%   Direction: 180°S
Pressure: 30.33"   Gusts: NA
Location:  34.94°N, 104.68°W
Report Text: KLVS 271953Z AUTO 18007KT 10SM CLR 19/M11 A3033 RMK AO2 SLP211 T01891106
Loading
Personal Weather Stations






























Interactive Weather Map New forecast layout! Learn more

10-Day Weather Forecast

Advertisements
Track Severe Weather on mobile